sensor_id;sensor_type;location;lat;lon;timestamp;temperature;humidity
13268;DHT22;6702;47.068;15.458;2022-12-10T00:01:19;5.60;99.90
13268;DHT22;6702;47.068;15.458;2022-12-10T00:04:23;5.70;99.90
13268;DHT22;6702;47.068;15.458;2022-12-10T00:07:27;5.80;99.90
13268;DHT22;6702;47.068;15.458;2022-12-10T00:10:30;5.90;99.90
13268;DHT22;6702;47.068;15.458;2022-12-10T00:13:34;5.80;99.90
13268;DHT22;6702;47.068;15.458;2022-12-10T00:16:37;5.80;99.90
13268;DHT22;6702;47.068;15.458;2022-12-10T00:19:42;5.80;99.90
13268;DHT22;6702;47.068;15.458;2022-12-10T00:22:45;5.80;99.90
13268;DHT22;6702;47.068;15.458;2022-12-10T00:25:48;5.80;99.90
13268;DHT22;6702;47.068;15.458;2022-12-10T00:28:52;5.80;99.90
13268;DHT22;6702;47.068;15.458;2022-12-10T00:31:55;5.80;99.90
13268;DHT22;6702;47.068;15.458;2022-12-10T00:35:00;5.90;99.90
13268;DHT22;6702;47.068;15.458;2022-12-10T00:38:03;5.90;99.90
13268;DHT22;6702;47.068;15.458;2022-12-10T00:41:07;5.90;99.90
13268;DHT22;6702;47.068;15.458;2022-12-10T00:44:10;6.00;99.90
13268;DHT22;6702;47.068;15.458;2022-12-10T00:47:13;6.00;99.90
13268;DHT22;6702;47.068;15.458;2022-12-10T00:50:18;6.00;99.90
13268;DHT22;6702;47.068;15.458;2022-12-10T00:53:21;6.10;99.90
13268;DHT22;6702;47.068;15.458;2022-12-10T00:56:29;6.10;99.90
13268;DHT22;6702;47.068;15.458;2022-12-10T00:59:32;6.10;99.90
13268;DHT22;6702;47.068;15.458;2022-12-10T01:02:35;6.10;99.90
13268;DHT22;6702;47.068;15.458;2022-12-10T01:05:40;6.10;99.90
13268;DHT22;6702;47.068;15.458;2022-12-10T01:08:44;6.00;99.90
13268;DHT22;6702;47.068;15.458;2022-12-10T01:11:48;6.00;99.90
13268;DHT22;6702;47.068;15.458;2022-12-10T01:14:51;6.00;99.90
13268;DHT22;6702;47.068;15.458;2022-12-10T01:17:54;6.10;99.90
13268;DHT22;6702;47.068;15.458;2022-12-10T01:21:02;6.10;99.90
13268;DHT22;6702;47.068;15.458;2022-12-10T01:24:06;6.20;99.90
13268;DHT22;6702;47.068;15.458;2022-12-10T01:27:09;6.20;99.90
13268;DHT22;6702;47.068;15.458;2022-12-10T01:30:12;6.20;99.90
13268;DHT22;6702;47.068;15.458;2022-12-10T01:33:15;6.10;99.90
13268;DHT22;6702;47.068;15.458;2022-12-10T01:36:22;6.10;99.90
13268;DHT22;6702;47.068;15.458;2022-12-10T01:39:26;6.10;99.90
13268;DHT22;6702;47.068;15.458;2022-12-10T01:42:29;6.10;99.90
13268;DHT22;6702;47.068;15.458;2022-12-10T01:45:32;6.10;99.90
13268;DHT22;6702;47.068;15.458;2022-12-10T01:48:35;6.10;99.90
13268;DHT22;6702;47.068;15.458;2022-12-10T01:51:42;6.10;99.90
13268;DHT22;6702;47.068;15.458;2022-12-10T01:54:46;6.10;99.90
13268;DHT22;6702;47.068;15.458;2022-12-10T01:57:49;6.20;99.90
13268;DHT22;6702;47.068;15.458;2022-12-10T02:01:01;6.20;99.90
13268;DHT22;6702;47.068;15.458;2022-12-10T02:04:12;6.20;99.90
13268;DHT22;6702;47.068;15.458;2022-12-10T02:07:22;6.30;99.90
13268;DHT22;6702;47.068;15.458;2022-12-10T02:10:38;6.30;99.90
13268;DHT22;6702;47.068;15.458;2022-12-10T02:13:47;6.30;99.90
13268;DHT22;6702;47.068;15.458;2022-12-10T02:16:57;6.30;99.90
13268;DHT22;6702;47.068;15.458;2022-12-10T02:20:05;6.40;99.90
13268;DHT22;6702;47.068;15.458;2022-12-10T02:23:13;6.40;99.90
13268;DHT22;6702;47.068;15.458;2022-12-10T02:26:23;6.40;99.90
13268;DHT22;6702;47.068;15.458;2022-12-10T02:29:30;6.40;99.90
13268;DHT22;6702;47.068;15.458;2022-12-10T02:32:37;6.40;99.90
13268;DHT22;6702;47.068;15.458;2022-12-10T02:35:45;6.40;99.90
13268;DHT22;6702;47.068;15.458;2022-12-10T02:38:51;6.40;99.90
13268;DHT22;6702;47.068;15.458;2022-12-10T02:41:57;6.30;99.90
13268;DHT22;6702;47.068;15.458;2022-12-10T02:45:03;6.30;99.90
13268;DHT22;6702;47.068;15.458;2022-12-10T02:48:06;6.30;99.90
13268;DHT22;6702;47.068;15.458;2022-12-10T02:51:09;6.30;99.90
13268;DHT22;6702;47.068;15.458;2022-12-10T02:54:36;6.30;99.90
13268;DHT22;6702;47.068;15.458;2022-12-10T02:57:45;6.30;99.90
13268;DHT22;6702;47.068;15.458;2022-12-10T03:00:58;6.40;99.90
13268;DHT22;6702;47.068;15.458;2022-12-10T03:04:09;6.40;99.90
13268;DHT22;6702;47.068;15.458;2022-12-10T03:07:16;6.40;99.90
13268;DHT22;6702;47.068;15.458;2022-12-10T03:10:26;6.50;99.90
13268;DHT22;6702;47.068;15.458;2022-12-10T03:13:34;6.60;99.90
13268;DHT22;6702;47.068;15.458;2022-12-10T03:16:42;6.60;99.90
13268;DHT22;6702;47.068;15.458;2022-12-10T03:19:48;6.60;99.90
13268;DHT22;6702;47.068;15.458;2022-12-10T03:22:53;6.70;99.90
13268;DHT22;6702;47.068;15.458;2022-12-10T03:25:58;6.70;99.90
13268;DHT22;6702;47.068;15.458;2022-12-10T03:29:06;6.70;99.90
13268;DHT22;6702;47.068;15.458;2022-12-10T03:32:13;6.70;99.90
13268;DHT22;6702;47.068;15.458;2022-12-10T03:35:19;6.70;99.90
13268;DHT22;6702;47.068;15.458;2022-12-10T03:38:22;6.70;99.90
13268;DHT22;6702;47.068;15.458;2022-12-10T03:41:26;6.60;99.90
13268;DHT22;6702;47.068;15.458;2022-12-10T03:44:30;6.50;99.90
13268;DHT22;6702;47.068;15.458;2022-12-10T03:47:35;6.50;99.90
13268;DHT22;6702;47.068;15.458;2022-12-10T03:50:38;6.60;99.90
13268;DHT22;6702;47.068;15.458;2022-12-10T03:53:41;6.50;99.90
13268;DHT22;6702;47.068;15.458;2022-12-10T03:56:44;6.50;99.90
13268;DHT22;6702;47.068;15.458;2022-12-10T03:59:47;6.40;99.90
13268;DHT22;6702;47.068;15.458;2022-12-10T04:02:52;6.40;99.90
13268;DHT22;6702;47.068;15.458;2022-12-10T04:06:01;6.40;99.90
13268;DHT22;6702;47.068;15.458;2022-12-10T04:09:04;6.50;99.90
13268;DHT22;6702;47.068;15.458;2022-12-10T04:12:07;6.40;99.90
13268;DHT22;6702;47.068;15.458;2022-12-10T04:15:11;6.50;99.90
13268;DHT22;6702;47.068;15.458;2022-12-10T04:18:33;6.50;99.90
13268;DHT22;6702;47.068;15.458;2022-12-10T04:21:37;6.50;99.90
13268;DHT22;6702;47.068;15.458;2022-12-10T04:24:58;6.50;99.90
13268;DHT22;6702;47.068;15.458;2022-12-10T04:28:19;6.40;99.90
13268;DHT22;6702;47.068;15.458;2022-12-10T04:31:22;6.40;99.90
13268;DHT22;6702;47.068;15.458;2022-12-10T04:34:27;6.30;99.90
13268;DHT22;6702;47.068;15.458;2022-12-10T04:37:30;6.40;99.90
13268;DHT22;6702;47.068;15.458;2022-12-10T04:40:33;6.40;99.90
13268;DHT22;6702;47.068;15.458;2022-12-10T04:43:36;6.40;99.90
13268;DHT22;6702;47.068;15.458;2022-12-10T04:46:40;6.40;99.90
13268;DHT22;6702;47.068;15.458;2022-12-10T04:49:44;6.40;99.90
13268;DHT22;6702;47.068;15.458;2022-12-10T04:52:48;6.40;99.90
13268;DHT22;6702;47.068;15.458;2022-12-10T04:55:51;6.40;99.90
13268;DHT22;6702;47.068;15.458;2022-12-10T04:58:55;6.30;99.90
13268;DHT22;6702;47.068;15.458;2022-12-10T05:01:58;6.30;99.90
13268;DHT22;6702;47.068;15.458;2022-12-10T05:05:03;6.30;99.90
13268;DHT22;6702;47.068;15.458;2022-12-10T05:08:06;6.30;99.90
13268;DHT22;6702;47.068;15.458;2022-12-10T05:11:11;6.30;99.90
13268;DHT22;6702;47.068;15.458;2022-12-10T05:14:15;6.30;99.90
13268;DHT22;6702;47.068;15.458;2022-12-10T05:17:18;6.30;99.90
13268;DHT22;6702;47.068;15.458;2022-12-10T05:20:23;6.20;99.90
13268;DHT22;6702;47.068;15.458;2022-12-10T05:23:26;6.20;99.90
13268;DHT22;6702;47.068;15.458;2022-12-10T05:26:31;6.20;99.90
13268;DHT22;6702;47.068;15.458;2022-12-10T05:29:34;6.20;99.90
13268;DHT22;6702;47.068;15.458;2022-12-10T05:32:38;6.30;99.90
13268;DHT22;6702;47.068;15.458;2022-12-10T05:35:42;6.20;99.90
13268;DHT22;6702;47.068;15.458;2022-12-10T05:38:46;6.20;99.90
13268;DHT22;6702;47.068;15.458;2022-12-10T05:41:49;6.30;99.90
13268;DHT22;6702;47.068;15.458;2022-12-10T05:44:52;6.30;99.90
13268;DHT22;6702;47.068;15.458;2022-12-10T05:47:55;6.40;99.90
13268;DHT22;6702;47.068;15.458;2022-12-10T05:51:03;6.40;99.90
13268;DHT22;6702;47.068;15.458;2022-12-10T05:54:07;6.50;99.90
13268;DHT22;6702;47.068;15.458;2022-12-10T05:57:11;6.50;99.90
13268;DHT22;6702;47.068;15.458;2022-12-10T06:00:14;6.60;99.90
13268;DHT22;6702;47.068;15.458;2022-12-10T06:03:17;6.60;99.90
13268;DHT22;6702;47.068;15.458;2022-12-10T06:06:23;6.70;99.90
13268;DHT22;6702;47.068;15.458;2022-12-10T06:09:26;6.60;99.90
13268;DHT22;6702;47.068;15.458;2022-12-10T06:12:29;6.60;99.90
13268;DHT22;6702;47.068;15.458;2022-12-10T06:15:32;6.70;99.90
13268;DHT22;6702;47.068;15.458;2022-12-10T06:18:36;6.70;99.90
13268;DHT22;6702;47.068;15.458;2022-12-10T06:21:41;6.70;99.90
13268;DHT22;6702;47.068;15.458;2022-12-10T06:24:44;6.70;99.90
13268;DHT22;6702;47.068;15.458;2022-12-10T06:27:47;6.80;99.90
13268;DHT22;6702;47.068;15.458;2022-12-10T06:30:50;6.70;99.90
13268;DHT22;6702;47.068;15.458;2022-12-10T06:33:54;6.70;99.90
13268;DHT22;6702;47.068;15.458;2022-12-10T06:36:58;6.80;99.90
13268;DHT22;6702;47.068;15.458;2022-12-10T06:40:02;6.70;99.90
13268;DHT22;6702;47.068;15.458;2022-12-10T06:43:05;6.70;99.90
13268;DHT22;6702;47.068;15.458;2022-12-10T06:46:11;6.70;99.90
13268;DHT22;6702;47.068;15.458;2022-12-10T06:49:15;6.70;99.90
13268;DHT22;6702;47.068;15.458;2022-12-10T06:52:19;6.70;99.90
13268;DHT22;6702;47.068;15.458;2022-12-10T06:55:22;6.60;99.90
13268;DHT22;6702;47.068;15.458;2022-12-10T06:58:27;6.60;99.90
13268;DHT22;6702;47.068;15.458;2022-12-10T07:01:30;6.60;99.90
13268;DHT22;6702;47.068;15.458;2022-12-10T07:04:33;6.60;99.90
13268;DHT22;6702;47.068;15.458;2022-12-10T07:07:38;6.60;99.90
13268;DHT22;6702;47.068;15.458;2022-12-10T07:10:41;6.60;99.90
13268;DHT22;6702;47.068;15.458;2022-12-10T07:13:44;6.60;99.90
13268;DHT22;6702;47.068;15.458;2022-12-10T07:16:48;6.60;99.90
13268;DHT22;6702;47.068;15.458;2022-12-10T07:19:51;6.70;99.90
13268;DHT22;6702;47.068;15.458;2022-12-10T07:22:55;6.70;99.90
13268;DHT22;6702;47.068;15.458;2022-12-10T07:25:59;6.70;99.90
13268;DHT22;6702;47.068;15.458;2022-12-10T07:29:03;6.70;99.90
13268;DHT22;6702;47.068;15.458;2022-12-10T07:32:07;6.80;99.90
13268;DHT22;6702;47.068;15.458;2022-12-10T07:35:10;6.70;99.90
13268;DHT22;6702;47.068;15.458;2022-12-10T07:38:14;6.80;99.90
13268;DHT22;6702;47.068;15.458;2022-12-10T07:41:18;6.80;99.90
13268;DHT22;6702;47.068;15.458;2022-12-10T07:44:23;6.80;99.90
13268;DHT22;6702;47.068;15.458;2022-12-10T07:47:26;6.90;99.90
13268;DHT22;6702;47.068;15.458;2022-12-10T07:50:29;6.90;99.90
13268;DHT22;6702;47.068;15.458;2022-12-10T07:53:34;7.00;99.90
13268;DHT22;6702;47.068;15.458;2022-12-10T07:56:37;7.00;99.90
13268;DHT22;6702;47.068;15.458;2022-12-10T07:59:41;6.80;99.90
13268;DHT22;6702;47.068;15.458;2022-12-10T08:02:44;6.80;99.90
13268;DHT22;6702;47.068;15.458;2022-12-10T08:05:47;6.70;99.90
13268;DHT22;6702;47.068;15.458;2022-12-10T08:08:52;6.70;99.90
13268;DHT22;6702;47.068;15.458;2022-12-10T08:11:55;6.70;99.90
13268;DHT22;6702;47.068;15.458;2022-12-10T08:14:58;6.70;99.90
13268;DHT22;6702;47.068;15.458;2022-12-10T08:18:01;6.60;99.90
13268;DHT22;6702;47.068;15.458;2022-12-10T08:21:05;6.50;99.90
13268;DHT22;6702;47.068;15.458;2022-12-10T08:24:10;6.30;99.90
13268;DHT22;6702;47.068;15.458;2022-12-10T08:27:13;6.20;99.90
13268;DHT22;6702;47.068;15.458;2022-12-10T08:30:16;6.30;99.90
13268;DHT22;6702;47.068;15.458;2022-12-10T08:33:19;6.30;99.90
13268;DHT22;6702;47.068;15.458;2022-12-10T08:36:22;6.30;99.90
13268;DHT22;6702;47.068;15.458;2022-12-10T08:39:27;6.30;99.90
13268;DHT22;6702;47.068;15.458;2022-12-10T08:42:30;6.20;99.90
13268;DHT22;6702;47.068;15.458;2022-12-10T08:45:33;6.20;99.90
13268;DHT22;6702;47.068;15.458;2022-12-10T08:48:37;6.20;99.90
13268;DHT22;6702;47.068;15.458;2022-12-10T08:51:41;6.20;99.90
13268;DHT22;6702;47.068;15.458;2022-12-10T08:54:45;6.20;99.90
13268;DHT22;6702;47.068;15.458;2022-12-10T08:57:49;6.30;99.90
13268;DHT22;6702;47.068;15.458;2022-12-10T09:00:52;6.30;99.90
13268;DHT22;6702;47.068;15.458;2022-12-10T09:03:55;6.40;99.90
13268;DHT22;6702;47.068;15.458;2022-12-10T09:06:58;6.40;99.90
13268;DHT22;6702;47.068;15.458;2022-12-10T09:10:05;6.50;99.90
13268;DHT22;6702;47.068;15.458;2022-12-10T09:13:09;6.60;99.90
13268;DHT22;6702;47.068;15.458;2022-12-10T09:16:12;6.60;99.90
13268;DHT22;6702;47.068;15.458;2022-12-10T09:19:16;6.60;99.90
13268;DHT22;6702;47.068;15.458;2022-12-10T09:22:21;6.60;99.90
13268;DHT22;6702;47.068;15.458;2022-12-10T09:25:26;6.60;99.90
13268;DHT22;6702;47.068;15.458;2022-12-10T09:28:29;6.50;99.90
13268;DHT22;6702;47.068;15.458;2022-12-10T09:31:32;6.60;99.90
13268;DHT22;6702;47.068;15.458;2022-12-10T09:34:35;6.60;99.90
13268;DHT22;6702;47.068;15.458;2022-12-10T09:37:38;6.60;99.90
13268;DHT22;6702;47.068;15.458;2022-12-10T09:40:47;6.60;99.90
13268;DHT22;6702;47.068;15.458;2022-12-10T09:43:57;6.60;99.90
13268;DHT22;6702;47.068;15.458;2022-12-10T09:47:06;6.60;99.90
13268;DHT22;6702;47.068;15.458;2022-12-10T09:50:18;6.60;99.90
13268;DHT22;6702;47.068;15.458;2022-12-10T09:53:23;6.50;99.90
13268;DHT22;6702;47.068;15.458;2022-12-10T09:56:31;6.50;99.90
13268;DHT22;6702;47.068;15.458;2022-12-10T09:59:38;6.50;99.90
13268;DHT22;6702;47.068;15.458;2022-12-10T10:02:42;6.70;99.90
13268;DHT22;6702;47.068;15.458;2022-12-10T10:05:48;6.60;99.90
13268;DHT22;6702;47.068;15.458;2022-12-10T10:08:57;6.70;99.90
13268;DHT22;6702;47.068;15.458;2022-12-10T10:12:10;6.80;99.90
13268;DHT22;6702;47.068;15.458;2022-12-10T10:15:20;6.80;99.90
13268;DHT22;6702;47.068;15.458;2022-12-10T10:18:29;6.70;99.90
13268;DHT22;6702;47.068;15.458;2022-12-10T10:21:38;6.80;99.90
13268;DHT22;6702;47.068;15.458;2022-12-10T10:24:43;6.80;99.90
13268;DHT22;6702;47.068;15.458;2022-12-10T10:27:48;6.80;99.90
13268;DHT22;6702;47.068;15.458;2022-12-10T10:30:52;6.80;99.90
13268;DHT22;6702;47.068;15.458;2022-12-10T10:33:59;6.70;99.90
13268;DHT22;6702;47.068;15.458;2022-12-10T10:37:03;6.80;99.90
13268;DHT22;6702;47.068;15.458;2022-12-10T10:40:21;6.80;99.90
13268;DHT22;6702;47.068;15.458;2022-12-10T10:43:27;6.80;99.90
13268;DHT22;6702;47.068;15.458;2022-12-10T10:46:35;6.80;99.90
13268;DHT22;6702;47.068;15.458;2022-12-10T10:49:44;6.80;99.90
13268;DHT22;6702;47.068;15.458;2022-12-10T10:52:47;6.90;99.90
13268;DHT22;6702;47.068;15.458;2022-12-10T10:55:51;6.90;99.90
13268;DHT22;6702;47.068;15.458;2022-12-10T10:59:00;6.90;99.90
13268;DHT22;6702;47.068;15.458;2022-12-10T11:02:14;6.90;99.90
13268;DHT22;6702;47.068;15.458;2022-12-10T11:05:21;6.90;99.90
13268;DHT22;6702;47.068;15.458;2022-12-10T11:08:28;7.00;99.90
13268;DHT22;6702;47.068;15.458;2022-12-10T11:11:34;7.00;99.90
13268;DHT22;6702;47.068;15.458;2022-12-10T11:14:40;7.00;99.90
13268;DHT22;6702;47.068;15.458;2022-12-10T11:17:49;7.00;99.90
13268;DHT22;6702;47.068;15.458;2022-12-10T11:21:01;6.90;99.90
13268;DHT22;6702;47.068;15.458;2022-12-10T11:24:11;6.80;99.90
13268;DHT22;6702;47.068;15.458;2022-12-10T11:27:20;6.80;99.90
13268;DHT22;6702;47.068;15.458;2022-12-10T11:30:29;6.80;99.90
13268;DHT22;6702;47.068;15.458;2022-12-10T11:33:43;6.80;99.90
13268;DHT22;6702;47.068;15.458;2022-12-10T11:36:57;6.80;99.90
13268;DHT22;6702;47.068;15.458;2022-12-10T11:40:30;6.90;99.90
13268;DHT22;6702;47.068;15.458;2022-12-10T11:43:56;6.90;99.90
13268;DHT22;6702;47.068;15.458;2022-12-10T11:47:35;7.00;99.90
13268;DHT22;6702;47.068;15.458;2022-12-10T11:50:44;7.00;99.90
13268;DHT22;6702;47.068;15.458;2022-12-10T11:54:03;7.00;99.90
13268;DHT22;6702;47.068;15.458;2022-12-10T11:57:15;6.90;99.90
13268;DHT22;6702;47.068;15.458;2022-12-10T12:00:22;6.80;99.90
13268;DHT22;6702;47.068;15.458;2022-12-10T12:03:49;6.70;99.90
13268;DHT22;6702;47.068;15.458;2022-12-10T12:07:22;6.70;99.90
13268;DHT22;6702;47.068;15.458;2022-12-10T12:10:40;6.70;99.90
13268;DHT22;6702;47.068;15.458;2022-12-10T12:13:59;6.70;99.90
13268;DHT22;6702;47.068;15.458;2022-12-10T12:17:07;6.70;99.90
13268;DHT22;6702;47.068;15.458;2022-12-10T12:20:17;6.60;99.90
13268;DHT22;6702;47.068;15.458;2022-12-10T12:23:24;6.50;99.90
13268;DHT22;6702;47.068;15.458;2022-12-10T12:26:32;6.60;99.90
13268;DHT22;6702;47.068;15.458;2022-12-10T12:29:41;6.50;99.90
13268;DHT22;6702;47.068;15.458;2022-12-10T12:32:55;6.50;99.90
13268;DHT22;6702;47.068;15.458;2022-12-10T12:36:07;6.50;99.90
13268;DHT22;6702;47.068;15.458;2022-12-10T12:39:19;6.50;99.90
13268;DHT22;6702;47.068;15.458;2022-12-10T12:42:26;6.40;99.90
13268;DHT22;6702;47.068;15.458;2022-12-10T12:45:38;6.50;99.90
13268;DHT22;6702;47.068;15.458;2022-12-10T12:48:48;6.40;99.90
13268;DHT22;6702;47.068;15.458;2022-12-10T12:52:00;6.30;99.90
13268;DHT22;6702;47.068;15.458;2022-12-10T12:55:15;6.40;99.90
13268;DHT22;6702;47.068;15.458;2022-12-10T12:58:30;6.30;99.90
13268;DHT22;6702;47.068;15.458;2022-12-10T13:01:40;6.30;99.90
13268;DHT22;6702;47.068;15.458;2022-12-10T13:04:46;6.30;99.90
13268;DHT22;6702;47.068;15.458;2022-12-10T13:11:32;6.40;99.90
13268;DHT22;6702;47.068;15.458;2022-12-10T13:14:54;6.30;99.90
13268;DHT22;6702;47.068;15.458;2022-12-10T13:18:05;6.30;99.90
13268;DHT22;6702;47.068;15.458;2022-12-10T13:21:29;6.20;99.90
13268;DHT22;6702;47.068;15.458;2022-12-10T13:25:09;6.20;99.90
13268;DHT22;6702;47.068;15.458;2022-12-10T13:28:37;6.10;99.90
13268;DHT22;6702;47.068;15.458;2022-12-10T13:31:55;6.10;99.90
13268;DHT22;6702;47.068;15.458;2022-12-10T13:35:32;6.10;99.90
13268;DHT22;6702;47.068;15.458;2022-12-10T13:38:55;6.10;99.90
13268;DHT22;6702;47.068;15.458;2022-12-10T13:42:22;6.10;99.90
13268;DHT22;6702;47.068;15.458;2022-12-10T13:45:46;6.00;99.90
13268;DHT22;6702;47.068;15.458;2022-12-10T13:48:50;5.90;99.90
13268;DHT22;6702;47.068;15.458;2022-12-10T13:51:57;5.80;99.90
13268;DHT22;6702;47.068;15.458;2022-12-10T13:55:20;5.80;99.90
13268;DHT22;6702;47.068;15.458;2022-12-10T13:58:37;5.70;99.90
13268;DHT22;6702;47.068;15.458;2022-12-10T14:01:52;5.60;99.90
13268;DHT22;6702;47.068;15.458;2022-12-10T14:05:14;5.70;99.90
13268;DHT22;6702;47.068;15.458;2022-12-10T14:08:25;5.70;99.90
13268;DHT22;6702;47.068;15.458;2022-12-10T14:11:32;5.70;99.90
13268;DHT22;6702;47.068;15.458;2022-12-10T14:14:40;5.80;99.90
13268;DHT22;6702;47.068;15.458;2022-12-10T14:17:46;5.80;99.90
13268;DHT22;6702;47.068;15.458;2022-12-10T14:20:52;5.80;99.90
13268;DHT22;6702;47.068;15.458;2022-12-10T14:23:56;5.80;99.90
13268;DHT22;6702;47.068;15.458;2022-12-10T14:27:02;5.90;99.90
13268;DHT22;6702;47.068;15.458;2022-12-10T14:30:15;5.80;99.90
13268;DHT22;6702;47.068;15.458;2022-12-10T14:33:22;5.70;99.90
13268;DHT22;6702;47.068;15.458;2022-12-10T14:36:28;5.70;99.90
13268;DHT22;6702;47.068;15.458;2022-12-10T14:39:33;5.70;99.90
13268;DHT22;6702;47.068;15.458;2022-12-10T14:42:38;5.70;99.90
13268;DHT22;6702;47.068;15.458;2022-12-10T14:45:45;5.70;99.90
13268;DHT22;6702;47.068;15.458;2022-12-10T14:48:50;5.60;99.90
13268;DHT22;6702;47.068;15.458;2022-12-10T14:51:56;5.50;99.90
13268;DHT22;6702;47.068;15.458;2022-12-10T14:54:59;5.50;99.90
13268;DHT22;6702;47.068;15.458;2022-12-10T14:58:04;5.40;99.90
13268;DHT22;6702;47.068;15.458;2022-12-10T15:01:13;5.40;99.90
13268;DHT22;6702;47.068;15.458;2022-12-10T15:04:20;5.50;99.90
13268;DHT22;6702;47.068;15.458;2022-12-10T15:07:32;5.40;99.90
13268;DHT22;6702;47.068;15.458;2022-12-10T15:10:40;5.30;99.90
13268;DHT22;6702;47.068;15.458;2022-12-10T15:13:45;5.30;99.90
13268;DHT22;6702;47.068;15.458;2022-12-10T15:16:51;5.20;99.90
13268;DHT22;6702;47.068;15.458;2022-12-10T15:20:19;5.20;99.90
13268;DHT22;6702;47.068;15.458;2022-12-10T15:23:29;5.20;99.90
13268;DHT22;6702;47.068;15.458;2022-12-10T15:26:33;5.30;99.90
13268;DHT22;6702;47.068;15.458;2022-12-10T15:29:38;5.30;99.90
13268;DHT22;6702;47.068;15.458;2022-12-10T15:32:47;5.30;99.90
13268;DHT22;6702;47.068;15.458;2022-12-10T15:35:57;5.30;99.90
13268;DHT22;6702;47.068;15.458;2022-12-10T15:39:03;5.20;99.90
13268;DHT22;6702;47.068;15.458;2022-12-10T15:42:26;5.20;99.90
13268;DHT22;6702;47.068;15.458;2022-12-10T15:45:39;5.20;99.90
13268;DHT22;6702;47.068;15.458;2022-12-10T15:48:43;5.20;99.90
13268;DHT22;6702;47.068;15.458;2022-12-10T15:51:48;5.20;99.90
13268;DHT22;6702;47.068;15.458;2022-12-10T15:54:53;5.20;99.90
13268;DHT22;6702;47.068;15.458;2022-12-10T15:57:57;5.20;99.90
13268;DHT22;6702;47.068;15.458;2022-12-10T16:01:05;5.10;99.90
13268;DHT22;6702;47.068;15.458;2022-12-10T16:04:09;5.10;99.90
13268;DHT22;6702;47.068;15.458;2022-12-10T16:07:15;5.00;99.90
13268;DHT22;6702;47.068;15.458;2022-12-10T16:10:23;5.00;99.90
13268;DHT22;6702;47.068;15.458;2022-12-10T16:13:31;5.00;99.90
13268;DHT22;6702;47.068;15.458;2022-12-10T16:16:36;5.10;99.90
13268;DHT22;6702;47.068;15.458;2022-12-10T16:19:42;5.10;99.90
13268;DHT22;6702;47.068;15.458;2022-12-10T16:22:49;5.00;99.90
13268;DHT22;6702;47.068;15.458;2022-12-10T16:25:53;5.00;99.90
13268;DHT22;6702;47.068;15.458;2022-12-10T16:28:58;5.00;99.90
13268;DHT22;6702;47.068;15.458;2022-12-10T16:32:03;4.90;99.90
13268;DHT22;6702;47.068;15.458;2022-12-10T16:35:08;4.90;99.90
13268;DHT22;6702;47.068;15.458;2022-12-10T16:38:18;5.00;99.90
13268;DHT22;6702;47.068;15.458;2022-12-10T16:41:24;4.90;99.90
13268;DHT22;6702;47.068;15.458;2022-12-10T16:44:28;4.90;99.90
13268;DHT22;6702;47.068;15.458;2022-12-10T16:47:34;4.90;99.90
13268;DHT22;6702;47.068;15.458;2022-12-10T16:50:39;4.90;99.90
13268;DHT22;6702;47.068;15.458;2022-12-10T16:53:45;4.90;99.90
13268;DHT22;6702;47.068;15.458;2022-12-10T16:56:49;4.90;99.90
13268;DHT22;6702;47.068;15.458;2022-12-10T16:59:56;4.90;99.90
13268;DHT22;6702;47.068;15.458;2022-12-10T17:03:00;4.90;99.90
13268;DHT22;6702;47.068;15.458;2022-12-10T17:06:24;4.90;99.90
13268;DHT22;6702;47.068;15.458;2022-12-10T17:09:31;4.90;99.90
13268;DHT22;6702;47.068;15.458;2022-12-10T17:12:34;4.90;99.90
13268;DHT22;6702;47.068;15.458;2022-12-10T17:15:38;4.90;99.90
13268;DHT22;6702;47.068;15.458;2022-12-10T17:18:42;4.90;99.90
13268;DHT22;6702;47.068;15.458;2022-12-10T17:21:46;4.90;99.90
13268;DHT22;6702;47.068;15.458;2022-12-10T17:24:52;4.90;99.90
13268;DHT22;6702;47.068;15.458;2022-12-10T17:27:57;4.90;99.90
13268;DHT22;6702;47.068;15.458;2022-12-10T17:31:01;4.90;99.90
13268;DHT22;6702;47.068;15.458;2022-12-10T17:34:05;4.90;99.90
13268;DHT22;6702;47.068;15.458;2022-12-10T17:37:10;4.90;99.90
13268;DHT22;6702;47.068;15.458;2022-12-10T17:40:19;4.90;99.90
13268;DHT22;6702;47.068;15.458;2022-12-10T17:43:23;4.80;99.90
13268;DHT22;6702;47.068;15.458;2022-12-10T17:46:28;4.80;99.90
13268;DHT22;6702;47.068;15.458;2022-12-10T17:49:31;4.80;99.90
13268;DHT22;6702;47.068;15.458;2022-12-10T17:52:44;4.80;99.90
13268;DHT22;6702;47.068;15.458;2022-12-10T17:55:54;4.80;99.90
13268;DHT22;6702;47.068;15.458;2022-12-10T17:58:58;4.70;99.90
13268;DHT22;6702;47.068;15.458;2022-12-10T18:02:02;4.70;99.90
13268;DHT22;6702;47.068;15.458;2022-12-10T18:05:06;4.70;99.90
13268;DHT22;6702;47.068;15.458;2022-12-10T18:08:12;4.70;99.90
13268;DHT22;6702;47.068;15.458;2022-12-10T18:11:19;4.70;99.90
13268;DHT22;6702;47.068;15.458;2022-12-10T18:14:24;4.70;99.90
13268;DHT22;6702;47.068;15.458;2022-12-10T18:17:27;4.70;99.90
13268;DHT22;6702;47.068;15.458;2022-12-10T18:20:33;4.70;99.90
13268;DHT22;6702;47.068;15.458;2022-12-10T18:23:36;4.60;99.90
13268;DHT22;6702;47.068;15.458;2022-12-10T18:26:43;4.60;99.90
13268;DHT22;6702;47.068;15.458;2022-12-10T18:29:47;4.60;99.90
13268;DHT22;6702;47.068;15.458;2022-12-10T18:32:51;4.60;99.90
13268;DHT22;6702;47.068;15.458;2022-12-10T18:35:55;4.60;99.90
13268;DHT22;6702;47.068;15.458;2022-12-10T18:39:02;4.60;99.90
13268;DHT22;6702;47.068;15.458;2022-12-10T18:42:08;4.40;99.90
13268;DHT22;6702;47.068;15.458;2022-12-10T18:45:12;4.40;99.90
13268;DHT22;6702;47.068;15.458;2022-12-10T18:48:16;4.40;99.90
13268;DHT22;6702;47.068;15.458;2022-12-10T18:51:21;4.40;99.90
13268;DHT22;6702;47.068;15.458;2022-12-10T18:54:25;4.40;99.90
13268;DHT22;6702;47.068;15.458;2022-12-10T18:57:32;4.30;99.90
13268;DHT22;6702;47.068;15.458;2022-12-10T19:00:44;4.30;99.90
13268;DHT22;6702;47.068;15.458;2022-12-10T19:03:49;4.30;99.90
13268;DHT22;6702;47.068;15.458;2022-12-10T19:06:55;4.40;99.90
13268;DHT22;6702;47.068;15.458;2022-12-10T19:10:01;4.40;99.90
13268;DHT22;6702;47.068;15.458;2022-12-10T19:13:07;4.50;99.90
13268;DHT22;6702;47.068;15.458;2022-12-10T19:16:13;4.50;99.90
13268;DHT22;6702;47.068;15.458;2022-12-10T19:19:21;4.40;99.90
13268;DHT22;6702;47.068;15.458;2022-12-10T19:22:26;4.40;99.90
13268;DHT22;6702;47.068;15.458;2022-12-10T19:25:30;4.40;99.90
13268;DHT22;6702;47.068;15.458;2022-12-10T19:28:36;4.40;99.90
13268;DHT22;6702;47.068;15.458;2022-12-10T19:31:40;4.40;99.90
13268;DHT22;6702;47.068;15.458;2022-12-10T19:34:45;4.40;99.90
13268;DHT22;6702;47.068;15.458;2022-12-10T19:37:50;4.40;99.90
13268;DHT22;6702;47.068;15.458;2022-12-10T19:40:59;4.30;99.90
13268;DHT22;6702;47.068;15.458;2022-12-10T19:44:04;4.40;99.90
13268;DHT22;6702;47.068;15.458;2022-12-10T19:47:12;4.40;99.90
13268;DHT22;6702;47.068;15.458;2022-12-10T19:50:20;4.40;99.90
13268;DHT22;6702;47.068;15.458;2022-12-10T19:53:28;4.40;99.90
13268;DHT22;6702;47.068;15.458;2022-12-10T19:56:34;4.40;99.90
13268;DHT22;6702;47.068;15.458;2022-12-10T19:59:39;4.40;99.90
13268;DHT22;6702;47.068;15.458;2022-12-10T20:02:44;4.30;99.90